createdAt,value
2023-02-24T00:00:35.106Z,8.00
2023-02-24T00:03:06.732Z,8.00
2023-02-24T00:05:39.078Z,8.00
2023-02-24T00:08:07.644Z,8.00
2023-02-24T00:10:37.501Z,8.00
2023-02-24T00:13:05.710Z,7.90
2023-02-24T00:15:33.949Z,7.90
2023-02-24T00:18:06.985Z,7.90
2023-02-24T00:20:37.202Z,7.90
2023-02-24T00:23:05.408Z,7.90
2023-02-24T00:25:33.519Z,7.80
2023-02-24T00:28:01.969Z,7.80
2023-02-24T00:30:32.739Z,7.80
2023-02-24T00:33:02.761Z,7.80
2023-02-24T00:35:30.999Z,7.80
2023-02-24T00:38:00.804Z,7.70
2023-02-24T00:40:30.345Z,7.70
2023-02-24T00:42:59.009Z,7.70
2023-02-24T00:45:30.684Z,7.70
2023-02-24T00:47:59.006Z,7.60
2023-02-24T00:50:27.355Z,7.60
2023-02-24T00:52:55.482Z,7.60
2023-02-24T00:55:27.849Z,7.60
2023-02-24T00:57:56.292Z,7.60
2023-02-24T01:00:24.661Z,7.70
2023-02-24T01:02:52.772Z,7.70
2023-02-24T01:05:21.181Z,7.60
2023-02-24T01:07:49.415Z,7.60
2023-02-24T01:10:20.730Z,7.50
2023-02-24T01:12:49.749Z,7.50
2023-02-24T01:15:22.193Z,7.40
2023-02-24T01:17:50.418Z,7.40
2023-02-24T01:20:19.383Z,7.40
2023-02-24T01:22:53.001Z,7.30
2023-02-24T01:25:21.628Z,7.20
2023-02-24T01:27:52.730Z,7.20
2023-02-24T01:30:20.951Z,7.20
2023-02-24T01:32:49.385Z,7.20
2023-02-24T01:35:17.936Z,7.10
2023-02-24T01:37:46.426Z,7.20
2023-02-24T01:40:21.469Z,7.10
2023-02-24T01:42:52.128Z,7.10
2023-02-24T01:45:25.913Z,7.10
2023-02-24T01:47:58.161Z,7.20
2023-02-24T01:50:28.983Z,7.10
2023-02-24T01:53:01.621Z,7.10
2023-02-24T01:55:36.821Z,7.10
2023-02-24T01:58:15.480Z,7.10
2023-02-24T02:00:47.129Z,7.10
2023-02-24T02:03:26.547Z,7.10
2023-02-24T02:06:01.026Z,7.10
2023-02-24T02:08:31.023Z,7.10
2023-02-24T02:11:06.524Z,7.10
2023-02-24T02:13:40.508Z,7.10
2023-02-24T02:16:31.078Z,7.10
2023-02-24T02:19:29.418Z,7.10
2023-02-24T02:22:16.986Z,7.00
2023-02-24T02:24:55.261Z,6.70
2023-02-24T02:28:07.438Z,6.50
2023-02-24T02:31:19.794Z,6.40
2023-02-24T02:34:11.738Z,6.20
2023-02-24T02:36:59.579Z,6.10
2023-02-24T02:39:44.058Z,5.90
2023-02-24T02:42:26.403Z,5.90
2023-02-24T02:45:07.784Z,5.80
2023-02-24T02:47:43.905Z,5.70
2023-02-24T02:50:21.062Z,5.60
2023-02-24T02:52:56.943Z,5.60
2023-02-24T02:55:36.682Z,5.50
2023-02-24T02:58:11.001Z,5.50
2023-02-24T03:00:49.976Z,5.40
2023-02-24T03:03:20.524Z,5.40
2023-02-24T03:05:58.086Z,5.40
2023-02-24T03:08:34.238Z,5.30
2023-02-24T03:11:05.801Z,5.30
2023-02-24T03:13:41.047Z,5.30
2023-02-24T03:16:13.496Z,5.30
2023-02-24T03:18:50.823Z,5.40
2023-02-24T03:21:31.123Z,5.40
2023-02-24T03:24:00.093Z,5.40
2023-02-24T03:26:34.039Z,5.30
2023-02-24T03:29:17.560Z,5.30
2023-02-24T03:31:54.155Z,5.30
2023-02-24T03:34:31.202Z,5.30
2023-02-24T03:37:01.904Z,5.30
2023-02-24T03:39:31.489Z,5.30
2023-02-24T03:42:07.326Z,5.30
2023-02-24T03:44:35.474Z,5.20
2023-02-24T03:47:03.877Z,5.20
2023-02-24T03:49:32.167Z,5.30
2023-02-24T03:52:22.429Z,5.30
2023-02-24T03:55:09.128Z,5.20
2023-02-24T03:57:59.891Z,5.20
2023-02-24T04:00:40.184Z,5.20
2023-02-24T04:03:25.540Z,5.10
2023-02-24T04:06:11.159Z,5.20
2023-02-24T04:08:48.484Z,5.20
2023-02-24T04:11:28.981Z,5.20
2023-02-24T04:14:06.402Z,5.20
2023-02-24T04:16:49.440Z,5.20
2023-02-24T04:19:22.305Z,5.20
2023-02-24T04:21:52.526Z,5.20
2023-02-24T04:24:28.258Z,5.30
2023-02-24T04:27:00.501Z,5.30
2023-02-24T04:29:35.580Z,5.20
2023-02-24T04:32:10.569Z,5.20
2023-02-24T04:34:40.650Z,5.20
2023-02-24T04:37:08.833Z,5.10
2023-02-24T04:39:38.897Z,5.20
2023-02-24T04:42:08.054Z,5.20
2023-02-24T04:44:36.518Z,5.20
2023-02-24T04:47:04.864Z,5.20
2023-02-24T04:49:33.961Z,5.20
2023-02-24T04:52:02.406Z,5.20
2023-02-24T04:54:30.556Z,5.10
2023-02-24T04:57:00.000Z,5.10
2023-02-24T04:59:29.186Z,5.10
2023-02-24T05:02:01.329Z,5.00
2023-02-24T05:04:31.826Z,5.00
2023-02-24T05:07:00.253Z,5.00
2023-02-24T05:09:30.110Z,4.90
2023-02-24T05:12:00.266Z,4.90
2023-02-24T05:14:28.427Z,4.90
2023-02-24T05:17:00.336Z,4.80
2023-02-24T05:19:46.538Z,4.90
2023-02-24T05:22:17.477Z,4.90
2023-02-24T05:24:47.904Z,4.90
2023-02-24T05:27:17.560Z,4.90
2023-02-24T05:29:45.997Z,4.90
2023-02-24T05:32:16.653Z,4.90
2023-02-24T05:34:44.907Z,4.90
2023-02-24T05:37:16.559Z,5.00
2023-02-24T05:39:44.716Z,5.00
2023-02-24T05:42:12.969Z,5.00
2023-02-24T05:44:42.428Z,5.00
2023-02-24T05:47:10.833Z,5.00
2023-02-24T05:49:39.161Z,4.90
2023-02-24T05:52:10.055Z,4.90
2023-02-24T05:54:41.009Z,5.00
2023-02-24T05:57:12.827Z,5.00
2023-02-24T05:59:44.910Z,5.00
2023-02-24T06:02:16.941Z,4.90
2023-02-24T06:04:50.719Z,5.00
2023-02-24T06:07:22.878Z,5.00
2023-02-24T06:09:54.573Z,5.00
2023-02-24T06:12:25.706Z,5.00
2023-02-24T06:14:55.810Z,5.10
2023-02-24T06:17:24.558Z,5.00
2023-02-24T06:19:54.882Z,5.00
2023-02-24T06:22:26.650Z,5.00
2023-02-24T06:24:56.860Z,5.00
2023-02-24T06:27:25.643Z,5.00
2023-02-24T06:29:56.741Z,5.00
2023-02-24T06:32:27.255Z,5.00
2023-02-24T06:34:57.135Z,5.00
2023-02-24T06:37:25.425Z,5.00
2023-02-24T06:39:53.544Z,5.00
2023-02-24T06:42:21.669Z,5.00
2023-02-24T06:44:50.340Z,5.00
2023-02-24T06:47:20.071Z,5.10
2023-02-24T06:49:48.674Z,5.10
2023-02-24T06:52:18.895Z,5.10
2023-02-24T06:54:52.276Z,5.10
2023-02-24T06:57:20.640Z,5.20
2023-02-24T06:59:48.934Z,5.20
2023-02-24T07:02:17.663Z,5.20
2023-02-24T07:04:47.541Z,5.30
2023-02-24T07:07:17.247Z,5.20
2023-02-24T07:09:45.719Z,5.20
2023-02-24T07:12:20.792Z,5.30
2023-02-24T07:14:50.652Z,5.40
2023-02-24T07:17:19.901Z,5.40
2023-02-24T07:19:49.347Z,5.50
2023-02-24T07:22:25.000Z,5.50
2023-02-24T07:25:00.239Z,5.50
2023-02-24T07:27:28.469Z,5.50
2023-02-24T07:29:56.634Z,5.50
2023-02-24T07:32:25.408Z,5.50
2023-02-24T07:34:55.062Z,5.50
2023-02-24T07:37:24.283Z,5.50
2023-02-24T07:39:52.801Z,5.50
2023-02-24T07:42:21.191Z,5.60
2023-02-24T07:44:49.585Z,5.70
2023-02-24T07:47:17.847Z,5.80
2023-02-24T07:49:46.236Z,5.70
2023-02-24T07:52:16.056Z,5.70
2023-02-24T07:54:44.291Z,5.70
2023-02-24T07:57:13.726Z,5.80
2023-02-24T07:59:45.456Z,5.70
2023-02-24T08:02:13.967Z,5.90
2023-02-24T08:04:48.180Z,5.90
2023-02-24T08:07:24.094Z,6.00
2023-02-24T08:10:13.998Z,6.00
2023-02-24T08:12:43.620Z,6.10
2023-02-24T08:15:23.944Z,6.40
2023-02-24T08:17:56.770Z,6.40
2023-02-24T08:20:29.599Z,6.60
2023-02-24T08:22:59.107Z,6.60
2023-02-24T08:25:36.498Z,6.80
2023-02-24T08:28:11.189Z,6.90
2023-02-24T08:30:45.302Z,7.00
2023-02-24T08:33:20.494Z,7.00
2023-02-24T08:36:00.809Z,7.20
2023-02-24T08:38:41.776Z,7.20
2023-02-24T08:41:20.369Z,7.30
2023-02-24T08:43:50.287Z,7.40
2023-02-24T08:46:26.098Z,7.30
2023-02-24T08:48:57.554Z,7.40
2023-02-24T08:51:29.700Z,7.40
2023-02-24T08:54:01.766Z,7.60
2023-02-24T08:56:34.482Z,7.50
2023-02-24T08:59:06.384Z,7.60
2023-02-24T09:01:37.954Z,7.60
2023-02-24T09:04:10.517Z,7.60
2023-02-24T09:06:44.710Z,7.60
2023-02-24T09:09:22.451Z,7.60
2023-02-24T09:11:56.011Z,7.60
2023-02-24T09:14:29.271Z,7.50
2023-02-24T09:17:07.153Z,7.50
2023-02-24T09:20:01.976Z,7.40
2023-02-24T09:22:33.147Z,7.50
2023-02-24T09:25:25.788Z,7.30
2023-02-24T09:27:57.119Z,7.30
2023-02-24T09:30:38.991Z,7.40
2023-02-24T09:33:17.810Z,7.40
2023-02-24T09:35:48.908Z,7.30
2023-02-24T09:38:19.936Z,7.30
2023-02-24T09:40:50.718Z,7.50
2023-02-24T09:43:24.573Z,7.40
2023-02-24T09:46:01.942Z,7.40
2023-02-24T09:48:44.654Z,7.40
2023-02-24T09:51:22.737Z,7.50
2023-02-24T09:53:56.576Z,7.50
2023-02-24T09:56:42.380Z,7.40
2023-02-24T09:59:26.243Z,7.50
2023-02-24T10:02:03.944Z,7.40
2023-02-24T10:05:08.045Z,7.40
2023-02-24T10:07:43.920Z,7.40
2023-02-24T10:10:20.611Z,7.50
2023-02-24T10:12:59.914Z,7.60
2023-02-24T10:15:48.736Z,7.60
2023-02-24T10:18:32.876Z,7.60
2023-02-24T10:21:30.521Z,7.90
2023-02-24T10:24:14.390Z,8.10
2023-02-24T10:27:00.643Z,8.40
2023-02-24T10:29:55.477Z,8.50
2023-02-24T10:32:41.197Z,8.60
2023-02-24T10:35:17.494Z,8.60
2023-02-24T10:37:45.818Z,8.60
2023-02-24T10:40:26.233Z,8.70
2023-02-24T10:43:10.313Z,8.80
2023-02-24T10:45:45.132Z,8.90
2023-02-24T10:48:40.412Z,9.00
2023-02-24T10:51:19.816Z,9.00
2023-02-24T10:54:09.862Z,8.90
2023-02-24T10:56:44.622Z,8.80
2023-02-24T10:59:41.830Z,8.80
2023-02-24T11:02:29.698Z,8.70
2023-02-24T11:05:25.030Z,8.80
2023-02-24T11:08:15.658Z,8.80
2023-02-24T11:10:58.636Z,8.80
2023-02-24T11:13:45.685Z,8.80
2023-02-24T11:16:31.425Z,8.70
2023-02-24T11:19:00.856Z,8.60
2023-02-24T11:21:30.303Z,8.50
2023-02-24T11:24:02.788Z,8.50
2023-02-24T11:26:38.506Z,8.30
2023-02-24T11:29:37.039Z,8.30
2023-02-24T11:32:33.943Z,8.30
2023-02-24T11:35:16.106Z,8.30
2023-02-24T11:38:01.753Z,8.30
2023-02-24T11:40:37.982Z,8.20
2023-02-24T11:43:14.732Z,8.20
2023-02-24T11:45:49.905Z,8.20
2023-02-24T11:48:24.066Z,8.20
2023-02-24T11:51:01.453Z,8.30
2023-02-24T11:53:36.372Z,8.30
2023-02-24T11:56:12.935Z,8.30
2023-02-24T11:58:51.297Z,8.30
2023-02-24T12:01:29.311Z,8.20
2023-02-24T12:04:13.233Z,8.10
2023-02-24T12:06:51.897Z,8.00
2023-02-24T12:09:27.726Z,8.10
2023-02-24T12:12:02.019Z,8.10
2023-02-24T12:14:39.286Z,8.10
2023-02-24T12:17:19.221Z,8.10
2023-02-24T12:19:59.647Z,8.20
2023-02-24T12:22:40.135Z,8.20
2023-02-24T12:25:14.819Z,8.20
2023-02-24T12:28:04.309Z,8.20
2023-02-24T12:30:51.830Z,8.20
2023-02-24T12:33:45.992Z,8.20
2023-02-24T12:36:37.529Z,8.40
2023-02-24T12:39:16.141Z,8.50
2023-02-24T12:41:57.999Z,8.50
2023-02-24T12:44:39.388Z,8.60
2023-02-24T12:47:14.526Z,8.40
2023-02-24T12:50:06.672Z,8.30
2023-02-24T12:52:50.322Z,8.10
2023-02-24T12:55:27.874Z,7.90
2023-02-24T12:58:10.062Z,7.80
2023-02-24T13:00:52.144Z,7.80
2023-02-24T13:03:56.932Z,7.70
2023-02-24T13:06:48.944Z,7.60
2023-02-24T13:09:29.256Z,7.60
2023-02-24T13:12:04.835Z,7.50
2023-02-24T13:14:37.614Z,7.40
2023-02-24T13:17:19.741Z,7.40
2023-02-24T13:19:49.083Z,7.30
2023-02-24T13:22:29.159Z,7.20
2023-02-24T13:25:13.385Z,7.00
2023-02-24T13:27:57.168Z,6.90
2023-02-24T13:30:32.555Z,6.60
2023-02-24T13:33:05.103Z,6.50
2023-02-24T13:35:37.203Z,6.30
2023-02-24T13:38:26.924Z,6.30
2023-02-24T13:40:55.525Z,6.20
2023-02-24T13:43:30.820Z,6.20
2023-02-24T13:46:03.274Z,6.00
2023-02-24T13:48:58.662Z,5.90
2023-02-24T13:51:59.297Z,5.80
2023-02-24T13:55:04.010Z,5.80
2023-02-24T13:58:10.591Z,5.70
2023-02-24T14:01:02.088Z,5.70
2023-02-24T14:03:31.115Z,5.50
2023-02-24T14:06:01.507Z,5.50
2023-02-24T14:08:43.157Z,5.30
2023-02-24T14:11:16.178Z,5.30
2023-02-24T14:13:50.549Z,5.30
2023-02-24T14:16:24.786Z,5.30
2023-02-24T14:18:58.733Z,5.20
2023-02-24T14:21:29.930Z,5.10
2023-02-24T14:24:00.192Z,5.00
2023-02-24T14:26:31.983Z,5.00
2023-02-24T14:29:02.684Z,4.90
2023-02-24T14:31:32.353Z,4.90
2023-02-24T14:34:03.679Z,4.90
2023-02-24T14:36:38.350Z,4.90
2023-02-24T14:39:15.959Z,4.90
2023-02-24T14:41:45.304Z,4.90
2023-02-24T14:44:23.526Z,4.80
2023-02-24T14:46:56.760Z,4.70
2023-02-24T14:49:28.697Z,4.60
2023-02-24T14:52:02.829Z,4.70
2023-02-24T14:54:44.837Z,4.60
2023-02-24T14:57:19.719Z,4.50
2023-02-24T14:59:52.921Z,4.50
2023-02-24T15:02:28.718Z,4.50
2023-02-24T15:04:59.041Z,4.40
2023-02-24T15:07:31.975Z,4.40
2023-02-24T15:10:01.931Z,4.40
2023-02-24T15:12:34.308Z,4.30
2023-02-24T15:15:08.408Z,4.30
2023-02-24T15:17:42.340Z,4.30
2023-02-24T15:20:32.046Z,4.30
2023-02-24T15:23:00.499Z,4.30
2023-02-24T15:25:42.277Z,4.20
2023-02-24T15:28:25.801Z,4.20
2023-02-24T15:31:10.923Z,4.20
2023-02-24T15:33:43.806Z,4.20
2023-02-24T15:36:19.281Z,4.20
2023-02-24T15:38:52.357Z,4.10
2023-02-24T15:41:20.739Z,4.20
2023-02-24T15:43:52.925Z,4.20
2023-02-24T15:46:28.825Z,4.20
2023-02-24T15:49:02.946Z,4.20
2023-02-24T15:51:38.612Z,4.10
2023-02-24T15:54:13.722Z,4.10
2023-02-24T15:56:43.794Z,4.10
2023-02-24T15:59:15.471Z,4.20
2023-02-24T16:01:43.769Z,4.10
2023-02-24T16:04:13.467Z,4.10
2023-02-24T16:06:54.247Z,4.10
2023-02-24T16:09:33.461Z,4.10
2023-02-24T16:12:04.540Z,4.10
2023-02-24T16:14:33.509Z,4.10
2023-02-24T16:17:08.749Z,4.10
2023-02-24T16:19:38.420Z,4.10
2023-02-24T16:22:06.511Z,4.00
2023-02-24T16:24:34.604Z,4.00
2023-02-24T16:27:02.975Z,3.90
2023-02-24T16:29:31.491Z,3.90
2023-02-24T16:31:59.866Z,3.90
2023-02-24T16:34:28.188Z,3.80
2023-02-24T16:36:57.620Z,3.90
2023-02-24T16:39:25.957Z,3.90
2023-02-24T16:41:54.071Z,3.90
2023-02-24T16:44:23.153Z,3.90
2023-02-24T16:46:53.173Z,3.80
2023-02-24T16:49:22.224Z,3.80
2023-02-24T16:51:50.425Z,3.80
2023-02-24T16:54:21.892Z,3.80
2023-02-24T16:56:50.597Z,3.70
2023-02-24T16:59:18.728Z,3.80
2023-02-24T17:01:46.856Z,3.80
2023-02-24T17:04:15.127Z,3.80
2023-02-24T17:06:43.534Z,3.80
2023-02-24T17:09:15.349Z,3.80
2023-02-24T17:11:45.759Z,3.70
2023-02-24T17:14:19.380Z,3.70
2023-02-24T17:16:48.749Z,3.70
2023-02-24T17:19:17.696Z,3.60
2023-02-24T17:21:46.618Z,3.60
2023-02-24T17:24:17.635Z,3.60
2023-02-24T17:26:47.957Z,3.60
2023-02-24T17:29:16.302Z,3.60
2023-02-24T17:31:44.539Z,3.60
2023-02-24T17:34:12.780Z,3.60
2023-02-24T17:36:40.896Z,3.60
2023-02-24T17:39:09.097Z,3.50
2023-02-24T17:41:37.208Z,3.50
2023-02-24T17:44:06.643Z,3.50
2023-02-24T17:46:34.727Z,3.40
2023-02-24T17:49:04.887Z,3.40
2023-02-24T17:51:33.458Z,3.40
2023-02-24T17:54:01.490Z,3.40
2023-02-24T17:56:29.551Z,3.40
2023-02-24T17:58:58.883Z,3.50
2023-02-24T18:01:29.095Z,3.50
2023-02-24T18:03:58.157Z,3.50
2023-02-24T18:06:27.048Z,3.50
2023-02-24T18:08:55.116Z,3.60
2023-02-24T18:11:23.201Z,3.60
2023-02-24T18:13:52.626Z,3.60
2023-02-24T18:16:21.259Z,3.70
2023-02-24T18:18:51.394Z,3.70
2023-02-24T18:21:20.387Z,3.70
2023-02-24T18:23:49.551Z,3.80
2023-02-24T18:26:18.463Z,3.80
2023-02-24T18:28:46.532Z,3.90
2023-02-24T18:31:20.066Z,3.90
2023-02-24T18:33:49.978Z,3.90
2023-02-24T18:36:19.735Z,3.90
2023-02-24T18:38:48.190Z,3.90
2023-02-24T18:41:19.428Z,3.90
2023-02-24T18:43:50.045Z,4.00
2023-02-24T18:46:19.554Z,4.00
2023-02-24T18:48:51.132Z,4.00
2023-02-24T18:51:22.610Z,4.00
2023-02-24T18:53:52.947Z,4.10
2023-02-24T18:56:24.611Z,4.10
2023-02-24T18:58:55.665Z,4.10
2023-02-24T19:01:29.764Z,4.10
2023-02-24T19:04:00.399Z,4.10
2023-02-24T19:06:32.160Z,4.10
2023-02-24T19:09:02.572Z,4.10
2023-02-24T19:11:31.240Z,4.10
2023-02-24T19:14:00.596Z,4.10
2023-02-24T19:16:28.950Z,4.10
2023-02-24T19:19:00.804Z,4.10
2023-02-24T19:21:31.809Z,4.10
2023-02-24T19:24:02.121Z,4.10
2023-02-24T19:26:30.606Z,4.10
2023-02-24T19:28:59.927Z,4.10
2023-02-24T19:31:30.655Z,4.10
2023-02-24T19:34:03.933Z,4.10
2023-02-24T19:36:34.618Z,4.20
2023-02-24T19:39:03.705Z,4.20
2023-02-24T19:41:32.662Z,4.20
2023-02-24T19:44:01.008Z,4.20
2023-02-24T19:46:32.824Z,4.20
2023-02-24T19:49:02.285Z,4.20
2023-02-24T19:51:31.099Z,4.30
2023-02-24T19:54:03.137Z,4.20
2023-02-24T19:56:34.626Z,4.20
2023-02-24T19:59:05.454Z,4.10
2023-02-24T20:01:33.746Z,4.10
2023-02-24T20:04:05.555Z,4.10
2023-02-24T20:06:36.556Z,4.10
2023-02-24T20:09:07.329Z,4.10
2023-02-24T20:11:37.256Z,4.10
2023-02-24T20:14:05.784Z,4.10
2023-02-24T20:16:34.796Z,4.10
2023-02-24T20:19:05.908Z,4.00
2023-02-24T20:21:35.128Z,4.00
2023-02-24T20:24:05.401Z,4.00
2023-02-24T20:26:34.188Z,4.10
2023-02-24T20:29:02.434Z,4.10
2023-02-24T20:31:31.154Z,4.10
2023-02-24T20:33:59.282Z,4.10
2023-02-24T20:36:29.933Z,4.20
2023-02-24T20:39:00.810Z,4.20
2023-02-24T20:41:29.712Z,4.30
2023-02-24T20:43:57.841Z,4.30
2023-02-24T20:46:29.391Z,4.30
2023-02-24T20:49:00.880Z,4.40
2023-02-24T20:51:32.344Z,4.40
2023-02-24T20:54:02.043Z,4.40
2023-02-24T20:56:35.626Z,4.40
2023-02-24T20:59:07.203Z,4.50
2023-02-24T21:01:37.041Z,4.50
2023-02-24T21:04:05.640Z,4.50
2023-02-24T21:06:35.933Z,4.40
2023-02-24T21:09:05.449Z,4.50
2023-02-24T21:11:33.954Z,4.50
2023-02-24T21:14:02.660Z,4.50
2023-02-24T21:16:30.815Z,4.50
2023-02-24T21:18:59.506Z,4.50
2023-02-24T21:21:28.261Z,4.60
2023-02-24T21:23:57.738Z,4.60
2023-02-24T21:26:26.997Z,4.60
2023-02-24T21:28:57.944Z,4.60
2023-02-24T21:31:27.240Z,4.60
2023-02-24T21:33:56.628Z,4.60
2023-02-24T21:36:27.702Z,4.70
2023-02-24T21:38:57.469Z,4.60
2023-02-24T21:41:25.603Z,4.70
2023-02-24T21:43:55.733Z,4.70
2023-02-24T21:46:28.123Z,4.70
2023-02-24T21:48:58.310Z,4.70
2023-02-24T21:51:27.712Z,4.60
2023-02-24T21:53:57.936Z,4.60
2023-02-24T21:56:29.742Z,4.60
2023-02-24T21:59:01.531Z,4.60
2023-02-24T22:01:33.949Z,4.50
2023-02-24T22:04:05.292Z,4.50
2023-02-24T22:06:36.223Z,4.50
2023-02-24T22:09:08.419Z,4.50
2023-02-24T22:11:39.050Z,4.40
2023-02-24T22:14:09.509Z,4.40
2023-02-24T22:16:38.125Z,4.40
2023-02-24T22:19:06.594Z,4.30
2023-02-24T22:21:34.900Z,4.40
2023-02-24T22:24:05.502Z,4.40
2023-02-24T22:26:33.790Z,4.40
2023-02-24T22:29:03.019Z,4.40
2023-02-24T22:31:33.928Z,4.30
2023-02-24T22:34:04.268Z,4.30
2023-02-24T22:36:36.656Z,4.30
2023-02-24T22:39:09.167Z,4.30
2023-02-24T22:41:39.168Z,4.20
2023-02-24T22:44:08.546Z,4.30
2023-02-24T22:46:39.219Z,4.30
2023-02-24T22:49:08.262Z,4.30
2023-02-24T22:51:36.450Z,4.30
2023-02-24T22:54:06.608Z,4.30
2023-02-24T22:56:34.922Z,4.30
2023-02-24T22:59:03.035Z,4.30
2023-02-24T23:01:34.905Z,4.30
2023-02-24T23:04:05.738Z,4.30
2023-02-24T23:06:35.935Z,4.20
2023-02-24T23:09:07.131Z,4.30
2023-02-24T23:11:39.207Z,4.20
2023-02-24T23:14:13.388Z,4.10
2023-02-24T23:16:44.248Z,4.20
2023-02-24T23:19:17.481Z,4.20
2023-02-24T23:21:49.666Z,4.20
2023-02-24T23:24:21.584Z,4.20
2023-02-24T23:26:53.740Z,4.20
2023-02-24T23:29:24.177Z,4.10
2023-02-24T23:31:53.768Z,4.10
2023-02-24T23:34:21.970Z,3.90
2023-02-24T23:36:50.105Z,3.80
2023-02-24T23:39:24.975Z,3.80
2023-02-24T23:41:57.577Z,3.80
2023-02-24T23:44:26.285Z,3.70
2023-02-24T23:46:54.797Z,3.80
2023-02-24T23:49:22.954Z,3.80
2023-02-24T23:51:51.104Z,3.80
2023-02-24T23:54:20.646Z,3.90
2023-02-24T23:56:49.773Z,3.90
2023-02-24T23:59:17.898Z,4.00
